createdAt,value
2018-09-04T00:00:51.350Z,44.10
2018-09-04T00:03:20.277Z,44.10
2018-09-04T00:05:49.167Z,44.10
2018-09-04T00:08:18.087Z,44.10
2018-09-04T00:10:47.232Z,44.10
2018-09-04T00:13:16.127Z,44.30
2018-09-04T00:15:45.112Z,44.40
2018-09-04T00:18:14.009Z,44.60
2018-09-04T00:20:42.907Z,44.40
2018-09-04T00:23:11.858Z,44.60
2018-09-04T00:25:40.738Z,44.40
2018-09-04T00:28:09.603Z,44.60
2018-09-04T00:30:38.533Z,44.60
2018-09-04T00:33:08.043Z,44.70
2018-09-04T00:35:37.002Z,44.70
2018-09-04T00:38:08.170Z,44.60
2018-09-04T00:40:37.161Z,44.60
2018-09-04T00:43:06.470Z,44.60
2018-09-04T00:45:35.351Z,44.40
2018-09-04T00:48:04.307Z,44.40
2018-09-04T00:50:33.212Z,44.60
2018-09-04T00:53:05.609Z,44.60
2018-09-04T00:55:36.535Z,44.60
2018-09-04T00:58:08.518Z,44.60
2018-09-04T01:00:40.194Z,44.40
2018-09-04T01:03:11.491Z,44.40
2018-09-04T01:05:40.958Z,44.40
2018-09-04T01:08:09.856Z,44.30
2018-09-04T01:10:38.793Z,44.30
2018-09-04T01:13:07.679Z,44.30
2018-09-04T01:15:36.574Z,44.30
2018-09-04T01:18:05.550Z,44.10
2018-09-04T01:20:34.638Z,44.30
2018-09-04T01:23:03.501Z,44.30
2018-09-04T01:25:32.398Z,44.30
2018-09-04T01:28:01.281Z,44.30
2018-09-04T01:30:30.177Z,44.10
2018-09-04T01:32:59.083Z,44.30
2018-09-04T01:35:28.388Z,44.10
2018-09-04T01:37:57.764Z,44.10
2018-09-04T01:40:26.631Z,44.10
2018-09-04T01:42:55.512Z,44.10
2018-09-04T01:45:24.415Z,44.10
2018-09-04T01:47:53.282Z,44.10
2018-09-04T01:50:22.173Z,44.10
2018-09-04T01:52:51.104Z,44.10
2018-09-04T01:55:20.697Z,44.10
2018-09-04T01:57:49.571Z,44.30
2018-09-04T02:00:18.455Z,44.30
2018-09-04T02:02:47.722Z,44.10
2018-09-04T02:05:17.116Z,44.10
2018-09-04T02:07:45.999Z,44.10
2018-09-04T02:10:14.911Z,44.30
2018-09-04T02:12:44.067Z,44.30
2018-09-04T02:15:12.965Z,44.10
2018-09-04T02:17:41.978Z,44.10
2018-09-04T02:20:10.879Z,44.10
2018-09-04T02:22:39.803Z,44.10
2018-09-04T02:25:09.304Z,44.00
2018-09-04T02:27:38.387Z,44.10
2018-09-04T02:30:07.268Z,44.00
2018-09-04T02:32:36.415Z,44.00
2018-09-04T02:35:05.427Z,44.00
2018-09-04T02:37:34.529Z,44.00
2018-09-04T02:40:03.680Z,44.00
2018-09-04T02:42:32.550Z,44.00
2018-09-04T02:45:01.421Z,44.00
2018-09-04T02:47:30.310Z,43.90
2018-09-04T02:49:59.170Z,43.90
2018-09-04T02:52:28.081Z,43.90
2018-09-04T02:54:57.007Z,43.90
2018-09-04T02:57:25.862Z,43.90
2018-09-04T02:59:54.760Z,43.90
2018-09-04T03:02:24.059Z,43.90
2018-09-04T03:04:53.187Z,43.90
2018-09-04T03:07:22.469Z,43.70
2018-09-04T03:09:51.789Z,43.90
2018-09-04T03:12:20.685Z,43.90
2018-09-04T03:14:49.621Z,43.90
2018-09-04T03:17:18.799Z,43.90
2018-09-04T03:19:47.732Z,44.00
2018-09-04T03:22:16.693Z,43.90
2018-09-04T03:24:45.592Z,43.90
2018-09-04T03:27:14.534Z,43.70
2018-09-04T03:29:43.733Z,43.70
2018-09-04T03:32:12.643Z,43.90
2018-09-04T03:34:42.127Z,43.70
2018-09-04T03:37:11.009Z,43.90
2018-09-04T03:39:39.914Z,43.90
2018-09-04T03:42:08.787Z,43.70
2018-09-04T03:44:37.880Z,43.70
2018-09-04T03:47:07.406Z,43.90
2018-09-04T03:49:37.499Z,43.90
2018-09-04T03:52:06.402Z,43.90
2018-09-04T03:54:35.262Z,43.90
2018-09-04T03:57:04.488Z,43.90
2018-09-04T03:59:33.591Z,44.00
2018-09-04T04:02:02.491Z,44.10
2018-09-04T04:04:31.454Z,44.00
2018-09-04T04:07:00.378Z,44.10
2018-09-04T04:09:29.339Z,44.10
2018-09-04T04:11:58.555Z,44.10
2018-09-04T04:14:27.876Z,44.10
2018-09-04T04:16:56.755Z,44.00
2018-09-04T04:19:26.118Z,44.10
2018-09-04T04:21:55.850Z,44.00
2018-09-04T04:24:24.746Z,43.90
2018-09-04T04:26:53.611Z,43.70
2018-09-04T04:29:22.599Z,43.90
2018-09-04T04:31:51.474Z,43.90
2018-09-04T04:34:20.435Z,43.90
2018-09-04T04:36:49.611Z,43.90
2018-09-04T04:39:18.520Z,43.90
2018-09-04T04:41:47.480Z,43.90
2018-09-04T04:44:16.384Z,44.00
2018-09-04T04:46:45.276Z,44.00
2018-09-04T04:49:14.228Z,44.00
2018-09-04T04:51:43.115Z,44.00
2018-09-04T04:54:11.975Z,44.00
2018-09-04T04:56:41.199Z,44.00
2018-09-04T04:59:10.205Z,43.90
2018-09-04T05:01:39.116Z,43.90
2018-09-04T05:04:08.000Z,43.90
2018-09-04T05:06:37.228Z,44.10
2018-09-04T05:09:07.492Z,44.30
2018-09-04T05:11:36.506Z,44.30
2018-09-04T05:14:05.424Z,44.10
2018-09-04T05:16:34.321Z,44.40
2018-09-04T05:19:03.330Z,44.40
2018-09-04T05:21:32.421Z,44.40
2018-09-04T05:24:01.637Z,44.30
2018-09-04T05:26:30.514Z,44.00
2018-09-04T05:28:59.433Z,43.70
2018-09-04T05:31:29.979Z,43.60
2018-09-04T05:33:59.114Z,43.40
2018-09-04T05:36:28.003Z,43.30
2018-09-04T05:38:56.863Z,43.30
2018-09-04T05:41:25.764Z,43.30
2018-09-04T05:43:57.019Z,43.10
2018-09-04T05:46:44.185Z,43.00
2018-09-04T05:49:15.286Z,42.80
2018-09-04T05:51:47.346Z,42.80
2018-09-04T05:54:16.318Z,42.80
2018-09-04T05:56:45.201Z,43.00
2018-09-04T05:59:14.446Z,42.80
2018-09-04T06:01:43.703Z,42.80
2018-09-04T06:04:12.716Z,43.00
2018-09-04T06:06:41.618Z,43.00
2018-09-04T06:09:10.603Z,42.70
2018-09-04T06:11:39.484Z,42.50
2018-09-04T06:14:08.372Z,42.40
2018-09-04T06:16:37.372Z,42.40
2018-09-04T06:19:06.256Z,42.20
2018-09-04T06:21:35.179Z,42.20
2018-09-04T06:24:04.128Z,42.10
2018-09-04T06:26:33.043Z,41.80
2018-09-04T06:29:01.990Z,41.80
2018-09-04T06:31:30.971Z,41.60
2018-09-04T06:34:00.167Z,41.80
2018-09-04T06:36:29.384Z,41.80
2018-09-04T06:38:58.356Z,41.90
2018-09-04T06:41:27.255Z,41.90
2018-09-04T06:43:56.180Z,42.20
2018-09-04T06:46:25.158Z,42.50
2018-09-04T06:48:53.994Z,41.90
2018-09-04T06:51:22.955Z,41.50
2018-09-04T06:53:51.873Z,40.70
2018-09-04T06:56:21.071Z,39.90
2018-09-04T06:58:50.219Z,38.80
2018-09-04T07:01:19.356Z,37.50
2018-09-04T07:03:48.238Z,36.80
2018-09-04T07:06:17.343Z,35.90
2018-09-04T07:08:46.234Z,35.10
2018-09-04T07:11:15.099Z,34.00
2018-09-04T07:13:43.963Z,33.20
2018-09-04T07:16:12.835Z,32.30
2018-09-04T07:18:42.411Z,31.10
2018-09-04T07:21:11.808Z,30.40
2018-09-04T07:23:41.628Z,29.70
2018-09-04T07:26:10.564Z,29.40
2018-09-04T07:28:39.498Z,28.90
2018-09-04T07:31:08.415Z,28.60
2018-09-04T07:33:37.311Z,28.30
2018-09-04T07:36:06.524Z,28.00
2018-09-04T07:38:35.409Z,27.80
2018-09-04T07:41:04.286Z,27.30
2018-09-04T07:43:33.607Z,27.00
2018-09-04T07:46:03.070Z,26.90
2018-09-04T07:48:32.401Z,26.80
2018-09-04T07:51:01.347Z,26.60
2018-09-04T07:53:30.220Z,26.50
2018-09-04T07:55:59.137Z,26.70
2018-09-04T07:58:28.029Z,26.90
2018-09-04T08:00:57.040Z,27.30
2018-09-04T08:03:25.930Z,27.70
2018-09-04T08:05:54.782Z,28.40
2018-09-04T08:08:23.887Z,28.70
2018-09-04T08:10:52.757Z,29.20
2018-09-04T08:13:21.635Z,29.40
2018-09-04T08:15:50.502Z,29.70
2018-09-04T08:18:19.674Z,29.80
2018-09-04T08:20:49.272Z,29.80
2018-09-04T08:23:28.820Z,30.40
2018-09-04T08:25:59.204Z,30.80
2018-09-04T08:28:28.342Z,30.80
2018-09-04T08:30:57.416Z,30.70
2018-09-04T08:33:26.612Z,30.70
2018-09-04T08:35:55.546Z,29.60
2018-09-04T08:38:24.446Z,28.00
2018-09-04T08:40:53.401Z,26.90
2018-09-04T08:43:22.527Z,25.60
2018-09-04T08:45:51.451Z,24.40
2018-09-04T08:48:21.496Z,23.30
2018-09-04T08:50:50.731Z,22.60
2018-09-04T08:53:19.605Z,21.90
2018-09-04T08:55:48.476Z,21.40
2018-09-04T08:58:17.362Z,21.00
2018-09-04T09:00:46.524Z,20.80
2018-09-04T09:03:15.719Z,21.00
2018-09-04T09:05:45.132Z,21.60
2018-09-04T09:08:14.025Z,21.80
2018-09-04T09:10:42.957Z,22.00
2018-09-04T09:13:12.460Z,22.20
2018-09-04T09:15:41.586Z,22.70
2018-09-04T09:18:10.688Z,23.10
2018-09-04T09:20:39.623Z,23.10
2018-09-04T09:23:08.539Z,23.20
2018-09-04T09:25:37.759Z,23.70
2018-09-04T09:28:06.908Z,23.60
2018-09-04T09:30:35.798Z,23.80
2018-09-04T09:33:04.699Z,24.00
2018-09-04T09:35:33.623Z,23.80
2018-09-04T09:38:03.407Z,23.70
2018-09-04T09:40:33.017Z,23.30
2018-09-04T09:43:02.438Z,23.30
2018-09-04T09:45:31.613Z,23.30
2018-09-04T09:48:00.495Z,23.10
2018-09-04T09:50:29.416Z,22.80
2018-09-04T09:52:58.365Z,22.60
2018-09-04T09:55:27.387Z,22.20
2018-09-04T09:57:56.595Z,22.00
2018-09-04T10:00:30.980Z,22.20
2018-09-04T10:03:04.602Z,22.20
2018-09-04T10:05:34.368Z,22.10
2018-09-04T10:08:03.418Z,22.00
2018-09-04T10:10:32.667Z,22.00
2018-09-04T10:13:01.672Z,21.60
2018-09-04T10:15:30.799Z,21.40
2018-09-04T10:17:59.952Z,21.40
2018-09-04T10:20:28.952Z,21.20
2018-09-04T10:22:57.914Z,21.00
2018-09-04T10:25:26.923Z,21.00
2018-09-04T10:27:56.828Z,19.80
2018-09-04T10:30:25.771Z,20.10
2018-09-04T10:32:54.799Z,20.20
2018-09-04T10:35:26.973Z,19.70
2018-09-04T10:37:56.930Z,20.00
2018-09-04T10:40:31.380Z,20.50
2018-09-04T10:43:00.221Z,20.10
2018-09-04T10:45:35.146Z,20.40
2018-09-04T10:48:03.998Z,19.90
2018-09-04T10:50:33.086Z,20.40
2018-09-04T10:53:01.981Z,20.20
2018-09-04T10:55:30.872Z,20.00
2018-09-04T10:57:59.896Z,19.20
2018-09-04T11:00:28.981Z,18.90
2018-09-04T11:02:58.363Z,19.70
2018-09-04T11:05:27.684Z,19.40
2018-09-04T11:07:56.631Z,18.80
2018-09-04T11:10:25.531Z,19.60
2018-09-04T11:12:54.495Z,19.10
2018-09-04T11:15:23.859Z,19.00
2018-09-04T11:17:52.750Z,18.60
2018-09-04T11:20:22.039Z,18.00
2018-09-04T11:22:51.734Z,18.30
2018-09-04T11:25:20.743Z,19.00
2018-09-04T11:27:49.735Z,19.50
2018-09-04T11:30:18.634Z,19.90
2018-09-04T11:32:48.555Z,20.00
2018-09-04T11:35:17.493Z,20.30
2018-09-04T11:37:46.375Z,20.50
2018-09-04T11:40:15.580Z,20.60
2018-09-04T11:42:44.711Z,20.30
2018-09-04T11:45:13.602Z,20.20
2018-09-04T11:47:42.984Z,20.10
2018-09-04T11:50:12.827Z,19.10
2018-09-04T11:52:41.788Z,19.00
2018-09-04T11:55:11.222Z,19.70
2018-09-04T11:57:40.415Z,19.60
2018-09-04T12:00:11.957Z,19.70
2018-09-04T12:02:41.148Z,21.00
2018-09-04T12:05:11.303Z,20.20
2018-09-04T12:07:40.210Z,21.70
2018-09-04T12:10:09.517Z,23.30
2018-09-04T12:12:38.537Z,23.20
2018-09-04T12:15:07.327Z,22.60
2018-09-04T12:17:36.212Z,22.80
2018-09-04T12:21:10.782Z,22.30
2018-09-04T12:23:40.373Z,22.40
2018-09-04T12:26:10.507Z,22.70
2018-09-04T12:28:39.988Z,22.80
2018-09-04T12:31:09.527Z,22.30
2018-09-04T12:33:38.371Z,23.20
2018-09-04T12:36:07.796Z,23.10
2018-09-04T12:38:38.422Z,22.50
2018-09-04T12:41:14.358Z,22.30
2018-09-04T12:43:43.991Z,21.70
2018-09-04T12:46:12.888Z,21.50
2018-09-04T12:48:47.311Z,21.30
2018-09-04T12:51:16.276Z,20.80
2018-09-04T12:53:45.196Z,20.90
2018-09-04T12:56:14.093Z,20.60
2018-09-04T12:58:43.020Z,20.60
2018-09-04T13:01:11.933Z,21.10
2018-09-04T13:03:40.808Z,20.70
2018-09-04T13:06:09.678Z,20.60
2018-09-04T13:08:38.621Z,21.10
2018-09-04T13:11:07.531Z,20.90
2018-09-04T13:13:36.683Z,21.20
2018-09-04T13:16:05.563Z,21.20
2018-09-04T13:18:34.441Z,20.90
2018-09-04T13:21:04.284Z,21.00
2018-09-04T13:23:34.844Z,20.80
2018-09-04T13:26:04.291Z,20.70
2018-09-04T13:28:33.826Z,20.80
2018-09-04T13:31:02.840Z,20.70
2018-09-04T13:33:31.695Z,19.70
2018-09-04T13:36:00.925Z,20.10
2018-09-04T13:38:30.008Z,20.10
2018-09-04T13:41:04.338Z,20.20
2018-09-04T13:43:33.520Z,20.50
2018-09-04T13:46:02.690Z,20.30
2018-09-04T13:48:32.939Z,20.40
2018-09-04T13:51:02.060Z,20.50
2018-09-04T13:53:31.340Z,20.30
2018-09-04T13:56:00.539Z,20.30
2018-09-04T13:58:29.477Z,20.20
2018-09-04T14:00:58.384Z,20.10
2018-09-04T14:03:27.748Z,20.20
2018-09-04T14:05:56.687Z,20.20
2018-09-04T14:08:25.556Z,20.40
2018-09-04T14:10:54.715Z,20.80
2018-09-04T14:13:23.603Z,20.70
2018-09-04T14:15:55.977Z,20.50
2018-09-04T14:18:25.212Z,20.40
2018-09-04T14:20:54.127Z,20.80
2018-09-04T14:23:23.290Z,20.20
2018-09-04T14:25:52.772Z,20.60
2018-09-04T14:28:40.964Z,20.60
2018-09-04T14:30:50.881Z,21.10
2018-09-04T14:33:19.975Z,20.90
2018-09-04T14:35:48.860Z,20.90
2018-09-04T14:38:18.077Z,21.20
2018-09-04T14:40:47.766Z,21.40
2018-09-04T14:43:16.735Z,20.70
2018-09-04T14:45:45.898Z,20.90
2018-09-04T14:48:15.091Z,21.20
2018-09-04T14:50:44.355Z,20.80
2018-09-04T14:53:13.472Z,21.30
2018-09-04T14:55:42.692Z,21.00
2018-09-04T14:58:11.923Z,21.50
2018-09-04T15:00:40.785Z,21.50
2018-09-04T15:03:09.908Z,21.70
2018-09-04T15:05:45.428Z,22.00
2018-09-04T15:08:14.284Z,21.90
2018-09-04T15:10:43.404Z,22.50
2018-09-04T15:13:12.294Z,21.40
2018-09-04T15:15:41.224Z,21.90
2018-09-04T15:18:10.323Z,21.80
2018-09-04T15:20:39.188Z,21.80
2018-09-04T15:23:08.050Z,22.10
2018-09-04T15:25:36.969Z,22.70
2018-09-04T15:28:05.823Z,22.10
2018-09-04T15:30:34.982Z,22.80
2018-09-04T15:33:04.219Z,22.50
2018-09-04T15:35:33.479Z,22.70
2018-09-04T15:38:02.619Z,23.00
2018-09-04T15:40:31.500Z,22.80
2018-09-04T15:43:00.457Z,22.40
2018-09-04T15:45:29.657Z,22.50
2018-09-04T15:47:58.910Z,23.00
2018-09-04T15:50:27.874Z,22.30
2018-09-04T15:52:56.735Z,22.10
2018-09-04T15:55:25.617Z,21.60
2018-09-04T15:57:54.793Z,23.90
2018-09-04T16:00:23.716Z,24.30
2018-09-04T16:02:53.838Z,24.80
2018-09-04T16:05:23.140Z,25.40
2018-09-04T16:07:52.062Z,25.70
2018-09-04T16:10:20.997Z,26.00
2018-09-04T16:12:49.839Z,26.50
2018-09-04T16:15:18.705Z,26.50
2018-09-04T16:17:47.848Z,27.10
2018-09-04T16:20:16.947Z,27.20
2018-09-04T16:22:45.853Z,26.20
2018-09-04T16:25:14.998Z,25.70
2018-09-04T16:27:44.175Z,26.30
2018-09-04T16:30:13.771Z,26.30
2018-09-04T16:32:42.830Z,25.80
2018-09-04T16:35:11.751Z,25.70
2018-09-04T16:37:41.203Z,25.00
2018-09-04T16:40:11.647Z,25.20
2018-09-04T16:42:40.869Z,24.90
2018-09-04T16:45:09.893Z,25.00
2018-09-04T16:47:38.866Z,25.00
2018-09-04T16:50:07.968Z,25.30
2018-09-04T16:52:42.136Z,24.50
2018-09-04T16:55:12.787Z,25.30
2018-09-04T16:57:41.836Z,25.40
2018-09-04T17:00:10.755Z,25.30
2018-09-04T17:02:39.790Z,24.70
2018-09-04T17:05:09.175Z,24.70
2018-09-04T17:07:38.299Z,25.10
2018-09-04T17:10:08.146Z,25.30
2018-09-04T17:12:37.397Z,25.90
2018-09-04T17:15:06.382Z,25.80
2018-09-04T17:17:35.447Z,24.90
2018-09-04T17:20:04.444Z,25.70
2018-09-04T17:22:34.934Z,25.70
2018-09-04T17:25:04.038Z,25.70
2018-09-04T17:27:33.554Z,25.90
2018-09-04T17:30:02.575Z,26.20
2018-09-04T17:32:32.192Z,25.60
2018-09-04T17:35:01.139Z,25.50
2018-09-04T17:37:30.036Z,25.60
2018-09-04T17:39:59.076Z,26.30
2018-09-04T17:42:27.999Z,26.40
2018-09-04T17:44:56.969Z,26.20
2018-09-04T17:47:25.916Z,26.20
2018-09-04T17:49:54.854Z,26.70
2018-09-04T17:52:23.840Z,26.50
2018-09-04T17:54:52.845Z,27.00
2018-09-04T17:57:22.145Z,27.10
2018-09-04T17:59:51.124Z,27.60
2018-09-04T18:02:20.363Z,27.80
2018-09-04T18:04:49.534Z,27.70
2018-09-04T18:07:18.727Z,28.20
2018-09-04T18:09:47.818Z,28.30
2018-09-04T18:12:16.768Z,28.60
2018-09-04T18:14:45.837Z,28.90
2018-09-04T18:17:14.818Z,29.10
2018-09-04T18:19:48.674Z,29.10
2018-09-04T18:22:17.640Z,29.40
2018-09-04T18:24:46.839Z,29.60
2018-09-04T18:27:15.919Z,30.30
2018-09-04T18:29:45.148Z,30.10
2018-09-04T18:32:14.129Z,30.80
2018-09-04T18:34:43.185Z,31.00
2018-09-04T18:37:12.160Z,31.40
2018-09-04T18:39:41.071Z,32.20
2018-09-04T18:42:09.965Z,32.30
2018-09-04T18:44:39.256Z,33.10
2018-09-04T18:47:08.335Z,33.20
2018-09-04T18:49:37.440Z,33.70
2018-09-04T18:52:06.811Z,33.70
2018-09-04T18:54:36.093Z,33.80
2018-09-04T18:57:05.069Z,33.80
2018-09-04T18:59:34.023Z,34.10
2018-09-04T19:02:02.949Z,34.10
2018-09-04T19:04:32.018Z,34.70
2018-09-04T19:07:01.336Z,34.80
2018-09-04T19:09:30.243Z,34.70
2018-09-04T19:11:59.201Z,35.10
2018-09-04T19:14:28.484Z,35.40
2018-09-04T19:16:57.999Z,35.10
2018-09-04T19:19:27.574Z,35.30
2018-09-04T19:21:56.517Z,35.70
2018-09-04T19:24:25.499Z,35.70
2018-09-04T19:26:54.402Z,35.90
2018-09-04T19:29:23.314Z,36.20
2018-09-04T19:31:52.334Z,36.50
2018-09-04T19:34:21.224Z,36.80
2018-09-04T19:36:50.271Z,36.90
2018-09-04T19:39:19.246Z,37.10
2018-09-04T19:41:48.114Z,37.40
2018-09-04T19:44:17.011Z,37.60
2018-09-04T19:46:45.905Z,37.40
2018-09-04T19:49:14.846Z,37.60
2018-09-04T19:51:43.994Z,37.60
2018-09-04T19:54:12.913Z,37.60
2018-09-04T19:56:41.816Z,38.10
2018-09-04T19:59:11.050Z,38.20
2018-09-04T20:01:40.399Z,37.90
2018-09-04T20:04:09.295Z,38.10
2018-09-04T20:06:38.214Z,37.80
2018-09-04T20:09:07.194Z,38.10
2018-09-04T20:11:37.327Z,37.90
2018-09-04T20:14:07.816Z,37.80
2018-09-04T20:16:52.144Z,38.20
2018-09-04T20:19:24.410Z,38.10
2018-09-04T20:21:54.899Z,38.50
2018-09-04T20:24:25.309Z,38.40
2018-09-04T20:26:56.615Z,38.50
2018-09-04T20:29:27.986Z,38.50
2018-09-04T20:31:58.903Z,38.50
2018-09-04T20:34:30.318Z,39.10
2018-09-04T20:37:01.769Z,39.10
2018-09-04T20:39:33.815Z,39.10
2018-09-04T20:42:05.718Z,39.40
2018-09-04T20:44:36.406Z,39.10
2018-09-04T20:47:06.853Z,39.30
2018-09-04T20:49:38.548Z,39.10
2018-09-04T20:52:09.211Z,39.10
2018-09-04T20:54:40.472Z,39.40
2018-09-04T20:57:41.774Z,39.40
2018-09-04T21:00:25.056Z,39.40
2018-09-04T21:03:06.777Z,40.00
2018-09-04T21:05:48.603Z,40.50
2018-09-04T21:08:30.857Z,40.60
2018-09-04T21:11:00.989Z,40.30
2018-09-04T21:13:32.228Z,40.60
2018-09-04T21:16:03.822Z,40.50
2018-09-04T21:18:35.680Z,40.20
2018-09-04T21:21:07.219Z,40.00
2018-09-04T21:23:38.224Z,40.30
2018-09-04T21:26:08.813Z,40.30
2018-09-04T21:28:40.041Z,40.20
2018-09-04T21:31:10.772Z,40.20
2018-09-04T21:33:41.602Z,39.70
2018-09-04T21:36:12.038Z,39.70
2018-09-04T21:38:43.274Z,39.70
2018-09-04T21:41:14.713Z,40.00
2018-09-04T21:43:45.628Z,40.20
2018-09-04T21:46:16.818Z,40.30
2018-09-04T21:48:48.769Z,40.30
2018-09-04T21:51:20.173Z,40.30
2018-09-04T21:53:51.150Z,40.50
2018-09-04T21:56:22.219Z,40.50
2018-09-04T21:58:53.923Z,40.60
2018-09-04T22:01:25.932Z,40.70
2018-09-04T22:03:58.021Z,41.00
2018-09-04T22:06:29.522Z,41.30
2018-09-04T22:09:00.674Z,41.50
2018-09-04T22:11:32.101Z,41.60
2018-09-04T22:14:01.284Z,41.60
2018-09-04T22:16:33.077Z,41.90
2018-09-04T22:19:05.574Z,41.90
2018-09-04T22:21:37.546Z,42.10
2018-09-04T22:24:09.078Z,42.50
2018-09-04T22:26:41.040Z,42.80
2018-09-04T22:29:12.457Z,42.70
2018-09-04T22:31:43.956Z,43.00
2018-09-04T22:34:16.420Z,43.00
2018-09-04T22:36:47.753Z,43.00
2018-09-04T22:39:19.375Z,43.10
2018-09-04T22:41:55.633Z,43.30
2018-09-04T22:44:28.573Z,43.40
2018-09-04T22:47:01.147Z,43.60
2018-09-04T22:49:32.501Z,43.70
2018-09-04T22:52:05.407Z,44.10
2018-09-04T22:54:37.078Z,44.30
2018-09-04T22:57:09.241Z,44.10
2018-09-04T22:59:41.652Z,44.30
2018-09-04T23:02:14.825Z,44.70
2018-09-04T23:04:46.591Z,44.40
2018-09-04T23:07:19.861Z,44.40
2018-09-04T23:09:52.280Z,44.90
2018-09-04T23:12:24.318Z,44.70
2018-09-04T23:14:55.197Z,44.70
2018-09-04T23:17:24.614Z,44.30
2018-09-04T23:19:56.204Z,44.70
2018-09-04T23:22:28.394Z,44.10
2018-09-04T23:25:01.094Z,44.40
2018-09-04T23:27:33.348Z,44.60
2018-09-04T23:30:06.008Z,44.60
2018-09-04T23:32:38.452Z,44.60
2018-09-04T23:35:12.081Z,44.40
2018-09-04T23:37:43.531Z,44.10
2018-09-04T23:40:16.402Z,44.40
2018-09-04T23:42:48.595Z,44.70
2018-09-04T23:45:18.957Z,44.70
2018-09-04T23:47:49.670Z,44.70
2018-09-04T23:50:20.174Z,45.00
2018-09-04T23:52:49.167Z,45.00
2018-09-04T23:55:20.344Z,44.90
2018-09-04T23:57:52.273Z,45.00
